sensor_id;sensor_type;location;lat;lon;timestamp;P1;durP1;ratioP1;P2;durP2;ratioP2
3068;SDS011;1545;51.728;8.796;2022-12-07T00:01:35;168.83;;;61.53;;
3068;SDS011;1545;51.728;8.796;2022-12-07T00:04:04;180.07;;;64.73;;
3068;SDS011;1545;51.728;8.796;2022-12-07T00:06:31;189.47;;;64.33;;
3068;SDS011;1545;51.728;8.796;2022-12-07T00:08:57;175.73;;;64.70;;
3068;SDS011;1545;51.728;8.796;2022-12-07T00:11:23;193.87;;;66.30;;
3068;SDS011;1545;51.728;8.796;2022-12-07T00:13:53;192.57;;;66.53;;
3068;SDS011;1545;51.728;8.796;2022-12-07T00:16:22;193.27;;;68.63;;
3068;SDS011;1545;51.728;8.796;2022-12-07T00:18:48;185.33;;;68.23;;
3068;SDS011;1545;51.728;8.796;2022-12-07T00:23:42;187.80;;;67.33;;
3068;SDS011;1545;51.728;8.796;2022-12-07T00:26:09;198.77;;;69.17;;
3068;SDS011;1545;51.728;8.796;2022-12-07T00:28:40;211.60;;;72.27;;
3068;SDS011;1545;51.728;8.796;2022-12-07T00:31:07;217.33;;;74.73;;
3068;SDS011;1545;51.728;8.796;2022-12-07T00:33:34;199.83;;;72.93;;
3068;SDS011;1545;51.728;8.796;2022-12-07T00:36:01;204.07;;;71.53;;
3068;SDS011;1545;51.728;8.796;2022-12-07T00:38:29;197.33;;;71.90;;
3068;SDS011;1545;51.728;8.796;2022-12-07T00:40:56;220.27;;;77.90;;
3068;SDS011;1545;51.728;8.796;2022-12-07T00:43:26;224.13;;;75.77;;
3068;SDS011;1545;51.728;8.796;2022-12-07T00:45:52;207.00;;;75.30;;
3068;SDS011;1545;51.728;8.796;2022-12-07T00:48:19;231.93;;;76.00;;
3068;SDS011;1545;51.728;8.796;2022-12-07T00:50:45;244.33;;;80.13;;
3068;SDS011;1545;51.728;8.796;2022-12-07T00:53:10;222.30;;;77.37;;
3068;SDS011;1545;51.728;8.796;2022-12-07T00:55:36;252.67;;;81.57;;
3068;SDS011;1545;51.728;8.796;2022-12-07T00:58:03;236.63;;;81.03;;
3068;SDS011;1545;51.728;8.796;2022-12-07T01:00:28;238.83;;;83.00;;
3068;SDS011;1545;51.728;8.796;2022-12-07T01:02:54;232.33;;;81.13;;
3068;SDS011;1545;51.728;8.796;2022-12-07T01:05:20;224.63;;;78.53;;
3068;SDS011;1545;51.728;8.796;2022-12-07T01:07:46;214.60;;;78.63;;
3068;SDS011;1545;51.728;8.796;2022-12-07T01:10:11;254.33;;;86.33;;
3068;SDS011;1545;51.728;8.796;2022-12-07T01:12:37;248.60;;;85.07;;
3068;SDS011;1545;51.728;8.796;2022-12-07T01:15:03;223.70;;;78.57;;
3068;SDS011;1545;51.728;8.796;2022-12-07T01:17:29;224.93;;;82.00;;
3068;SDS011;1545;51.728;8.796;2022-12-07T01:19:55;230.33;;;81.37;;
3068;SDS011;1545;51.728;8.796;2022-12-07T01:22:20;226.80;;;81.60;;
3068;SDS011;1545;51.728;8.796;2022-12-07T01:24:46;249.43;;;83.93;;
3068;SDS011;1545;51.728;8.796;2022-12-07T01:27:12;217.27;;;78.47;;
3068;SDS011;1545;51.728;8.796;2022-12-07T01:29:38;212.80;;;78.63;;
3068;SDS011;1545;51.728;8.796;2022-12-07T01:32:04;235.27;;;80.57;;
3068;SDS011;1545;51.728;8.796;2022-12-07T01:34:30;241.70;;;82.40;;
3068;SDS011;1545;51.728;8.796;2022-12-07T01:36:55;222.47;;;80.13;;
3068;SDS011;1545;51.728;8.796;2022-12-07T01:39:21;209.30;;;80.50;;
3068;SDS011;1545;51.728;8.796;2022-12-07T01:41:47;198.30;;;76.77;;
3068;SDS011;1545;51.728;8.796;2022-12-07T01:44:17;198.33;;;76.30;;
3068;SDS011;1545;51.728;8.796;2022-12-07T01:46:44;213.57;;;75.87;;
3068;SDS011;1545;51.728;8.796;2022-12-07T01:49:28;227.57;;;79.97;;
3068;SDS011;1545;51.728;8.796;2022-12-07T01:54:31;192.40;;;72.23;;
3068;SDS011;1545;51.728;8.796;2022-12-07T01:56:57;203.70;;;73.23;;
3068;SDS011;1545;51.728;8.796;2022-12-07T01:59:24;192.37;;;74.57;;
3068;SDS011;1545;51.728;8.796;2022-12-07T02:01:51;194.80;;;73.27;;
3068;SDS011;1545;51.728;8.796;2022-12-07T02:04:18;186.40;;;71.87;;
3068;SDS011;1545;51.728;8.796;2022-12-07T02:06:45;201.67;;;73.10;;
3068;SDS011;1545;51.728;8.796;2022-12-07T02:09:12;185.00;;;71.00;;
3068;SDS011;1545;51.728;8.796;2022-12-07T02:11:37;192.93;;;73.93;;
3068;SDS011;1545;51.728;8.796;2022-12-07T02:14:04;192.47;;;73.73;;
3068;SDS011;1545;51.728;8.796;2022-12-07T02:30:54;158.93;;;62.23;;
3068;SDS011;1545;51.728;8.796;2022-12-07T02:33:31;179.30;;;68.70;;
3068;SDS011;1545;51.728;8.796;2022-12-07T02:36:15;163.00;;;62.90;;
3068;SDS011;1545;51.728;8.796;2022-12-07T02:41:40;161.47;;;63.00;;
3068;SDS011;1545;51.728;8.796;2022-12-07T02:44:12;149.43;;;60.93;;
3068;SDS011;1545;51.728;8.796;2022-12-07T02:46:42;163.73;;;63.83;;
3068;SDS011;1545;51.728;8.796;2022-12-07T02:49:09;151.03;;;59.20;;
3068;SDS011;1545;51.728;8.796;2022-12-07T02:51:39;150.47;;;59.33;;
3068;SDS011;1545;51.728;8.796;2022-12-07T02:54:11;140.27;;;56.50;;
3068;SDS011;1545;51.728;8.796;2022-12-07T02:59:16;138.13;;;53.97;;
3068;SDS011;1545;51.728;8.796;2022-12-07T03:16:14;136.63;;;52.87;;
3068;SDS011;1545;51.728;8.796;2022-12-07T03:18:48;128.17;;;52.23;;
3068;SDS011;1545;51.728;8.796;2022-12-07T03:21:21;121.83;;;50.40;;
3068;SDS011;1545;51.728;8.796;2022-12-07T03:23:54;124.87;;;51.40;;
3068;SDS011;1545;51.728;8.796;2022-12-07T03:26:24;120.43;;;49.73;;
3068;SDS011;1545;51.728;8.796;2022-12-07T03:28:55;126.20;;;51.07;;
3068;SDS011;1545;51.728;8.796;2022-12-07T03:31:28;128.60;;;51.60;;
3068;SDS011;1545;51.728;8.796;2022-12-07T03:33:59;115.87;;;49.00;;
3068;SDS011;1545;51.728;8.796;2022-12-07T03:36:55;116.33;;;48.87;;
3068;SDS011;1545;51.728;8.796;2022-12-07T03:39:27;116.03;;;48.67;;
3068;SDS011;1545;51.728;8.796;2022-12-07T03:41:59;119.30;;;46.37;;
3068;SDS011;1545;51.728;8.796;2022-12-07T03:44:27;109.43;;;44.37;;
3068;SDS011;1545;51.728;8.796;2022-12-07T03:49:40;105.40;;;41.50;;
3068;SDS011;1545;51.728;8.796;2022-12-07T03:54:55;90.53;;;41.30;;
3068;SDS011;1545;51.728;8.796;2022-12-07T03:57:39;95.37;;;40.10;;
3068;SDS011;1545;51.728;8.796;2022-12-07T04:00:08;86.07;;;39.67;;
3068;SDS011;1545;51.728;8.796;2022-12-07T04:02:34;77.07;;;36.50;;
3068;SDS011;1545;51.728;8.796;2022-12-07T04:05:01;82.10;;;35.87;;
3068;SDS011;1545;51.728;8.796;2022-12-07T04:07:27;83.13;;;36.30;;
3068;SDS011;1545;51.728;8.796;2022-12-07T04:09:53;77.50;;;35.47;;
3068;SDS011;1545;51.728;8.796;2022-12-07T04:12:20;72.83;;;33.67;;
3068;SDS011;1545;51.728;8.796;2022-12-07T04:14:46;73.03;;;33.33;;
3068;SDS011;1545;51.728;8.796;2022-12-07T04:17:11;64.10;;;29.93;;
3068;SDS011;1545;51.728;8.796;2022-12-07T04:19:37;66.47;;;31.80;;
3068;SDS011;1545;51.728;8.796;2022-12-07T04:22:03;67.47;;;30.37;;
3068;SDS011;1545;51.728;8.796;2022-12-07T04:24:29;68.17;;;30.73;;
3068;SDS011;1545;51.728;8.796;2022-12-07T04:26:55;61.57;;;31.23;;
3068;SDS011;1545;51.728;8.796;2022-12-07T04:29:21;66.83;;;30.30;;
3068;SDS011;1545;51.728;8.796;2022-12-07T04:31:47;63.60;;;26.73;;
3068;SDS011;1545;51.728;8.796;2022-12-07T04:34:13;65.00;;;26.93;;
3068;SDS011;1545;51.728;8.796;2022-12-07T04:36:40;60.03;;;26.00;;
3068;SDS011;1545;51.728;8.796;2022-12-07T04:39:07;52.30;;;26.13;;
3068;SDS011;1545;51.728;8.796;2022-12-07T04:41:38;56.70;;;26.13;;
3068;SDS011;1545;51.728;8.796;2022-12-07T04:44:04;56.23;;;26.73;;
3068;SDS011;1545;51.728;8.796;2022-12-07T04:46:32;58.23;;;26.87;;
3068;SDS011;1545;51.728;8.796;2022-12-07T04:48:58;58.90;;;28.30;;
3068;SDS011;1545;51.728;8.796;2022-12-07T04:51:26;59.87;;;26.77;;
3068;SDS011;1545;51.728;8.796;2022-12-07T04:53:53;59.20;;;26.67;;
3068;SDS011;1545;51.728;8.796;2022-12-07T04:56:20;48.30;;;24.97;;
3068;SDS011;1545;51.728;8.796;2022-12-07T04:58:46;57.13;;;25.83;;
3068;SDS011;1545;51.728;8.796;2022-12-07T05:01:13;54.03;;;25.63;;
3068;SDS011;1545;51.728;8.796;2022-12-07T05:03:39;60.70;;;25.17;;
3068;SDS011;1545;51.728;8.796;2022-12-07T05:06:05;51.60;;;25.30;;
3068;SDS011;1545;51.728;8.796;2022-12-07T05:08:32;55.13;;;25.30;;
3068;SDS011;1545;51.728;8.796;2022-12-07T05:10:58;53.80;;;24.73;;
3068;SDS011;1545;51.728;8.796;2022-12-07T05:13:24;50.20;;;24.40;;
3068;SDS011;1545;51.728;8.796;2022-12-07T05:15:50;53.13;;;25.03;;
3068;SDS011;1545;51.728;8.796;2022-12-07T05:18:15;52.20;;;25.80;;
3068;SDS011;1545;51.728;8.796;2022-12-07T05:20:41;53.17;;;25.53;;
3068;SDS011;1545;51.728;8.796;2022-12-07T05:23:07;60.37;;;27.33;;
3068;SDS011;1545;51.728;8.796;2022-12-07T05:25:33;69.17;;;27.50;;
3068;SDS011;1545;51.728;8.796;2022-12-07T05:27:59;61.87;;;28.67;;
3068;SDS011;1545;51.728;8.796;2022-12-07T05:30:25;71.97;;;29.70;;
3068;SDS011;1545;51.728;8.796;2022-12-07T05:32:52;68.77;;;31.20;;
3068;SDS011;1545;51.728;8.796;2022-12-07T05:35:18;69.27;;;31.77;;
3068;SDS011;1545;51.728;8.796;2022-12-07T05:37:43;76.47;;;33.73;;
3068;SDS011;1545;51.728;8.796;2022-12-07T05:40:09;75.33;;;33.00;;
3068;SDS011;1545;51.728;8.796;2022-12-07T05:42:36;70.70;;;31.93;;
3068;SDS011;1545;51.728;8.796;2022-12-07T05:45:02;77.77;;;33.20;;
3068;SDS011;1545;51.728;8.796;2022-12-07T05:47:28;75.87;;;31.53;;
3068;SDS011;1545;51.728;8.796;2022-12-07T05:49:53;72.83;;;31.50;;
3068;SDS011;1545;51.728;8.796;2022-12-07T05:52:19;82.47;;;32.90;;
3068;SDS011;1545;51.728;8.796;2022-12-07T05:54:45;63.13;;;32.27;;
3068;SDS011;1545;51.728;8.796;2022-12-07T05:57:10;72.37;;;32.73;;
3068;SDS011;1545;51.728;8.796;2022-12-07T05:59:36;72.10;;;30.03;;
3068;SDS011;1545;51.728;8.796;2022-12-07T06:02:04;70.67;;;30.60;;
3068;SDS011;1545;51.728;8.796;2022-12-07T06:04:35;58.70;;;29.93;;
3068;SDS011;1545;51.728;8.796;2022-12-07T06:07:03;68.53;;;32.00;;
3068;SDS011;1545;51.728;8.796;2022-12-07T06:09:29;76.73;;;31.43;;
3068;SDS011;1545;51.728;8.796;2022-12-07T06:11:54;71.90;;;31.13;;
3068;SDS011;1545;51.728;8.796;2022-12-07T06:14:39;67.70;;;30.43;;
3068;SDS011;1545;51.728;8.796;2022-12-07T06:17:05;65.17;;;30.07;;
3068;SDS011;1545;51.728;8.796;2022-12-07T06:19:31;55.37;;;29.10;;
3068;SDS011;1545;51.728;8.796;2022-12-07T06:21:56;63.00;;;30.90;;
3068;SDS011;1545;51.728;8.796;2022-12-07T06:24:22;74.43;;;30.80;;
3068;SDS011;1545;51.728;8.796;2022-12-07T06:26:47;65.27;;;30.90;;
3068;SDS011;1545;51.728;8.796;2022-12-07T06:29:13;68.03;;;30.70;;
3068;SDS011;1545;51.728;8.796;2022-12-07T06:31:39;76.57;;;31.67;;
3068;SDS011;1545;51.728;8.796;2022-12-07T06:34:06;65.73;;;30.53;;
3068;SDS011;1545;51.728;8.796;2022-12-07T06:36:33;60.63;;;30.53;;
3068;SDS011;1545;51.728;8.796;2022-12-07T06:38:59;63.80;;;31.00;;
3068;SDS011;1545;51.728;8.796;2022-12-07T06:41:25;60.97;;;29.93;;
3068;SDS011;1545;51.728;8.796;2022-12-07T06:43:50;57.70;;;29.33;;
3068;SDS011;1545;51.728;8.796;2022-12-07T06:46:16;77.20;;;30.90;;
3068;SDS011;1545;51.728;8.796;2022-12-07T06:48:42;65.90;;;30.10;;
3068;SDS011;1545;51.728;8.796;2022-12-07T06:51:08;64.97;;;31.47;;
3068;SDS011;1545;51.728;8.796;2022-12-07T06:53:34;70.83;;;32.97;;
3068;SDS011;1545;51.728;8.796;2022-12-07T06:56:00;68.43;;;32.10;;
3068;SDS011;1545;51.728;8.796;2022-12-07T06:58:26;61.10;;;31.77;;
3068;SDS011;1545;51.728;8.796;2022-12-07T07:00:51;75.43;;;32.10;;
3068;SDS011;1545;51.728;8.796;2022-12-07T07:03:17;73.47;;;31.67;;
3068;SDS011;1545;51.728;8.796;2022-12-07T07:05:43;59.60;;;31.00;;
3068;SDS011;1545;51.728;8.796;2022-12-07T07:08:09;76.73;;;33.07;;
3068;SDS011;1545;51.728;8.796;2022-12-07T07:10:35;60.93;;;30.80;;
3068;SDS011;1545;51.728;8.796;2022-12-07T07:13:02;66.53;;;31.00;;
3068;SDS011;1545;51.728;8.796;2022-12-07T07:15:27;67.17;;;30.27;;
3068;SDS011;1545;51.728;8.796;2022-12-07T07:17:53;71.70;;;31.33;;
3068;SDS011;1545;51.728;8.796;2022-12-07T07:20:19;58.33;;;29.93;;
3068;SDS011;1545;51.728;8.796;2022-12-07T07:22:44;64.27;;;31.30;;
3068;SDS011;1545;51.728;8.796;2022-12-07T07:25:10;65.50;;;30.23;;
3068;SDS011;1545;51.728;8.796;2022-12-07T07:27:36;62.57;;;30.37;;
3068;SDS011;1545;51.728;8.796;2022-12-07T07:30:01;58.63;;;30.87;;
3068;SDS011;1545;51.728;8.796;2022-12-07T07:32:27;70.00;;;30.10;;
3068;SDS011;1545;51.728;8.796;2022-12-07T07:34:53;63.93;;;30.33;;
3068;SDS011;1545;51.728;8.796;2022-12-07T07:37:18;63.57;;;28.80;;
3068;SDS011;1545;51.728;8.796;2022-12-07T07:39:44;60.47;;;27.87;;
3068;SDS011;1545;51.728;8.796;2022-12-07T07:42:09;55.50;;;28.37;;
3068;SDS011;1545;51.728;8.796;2022-12-07T07:44:35;56.50;;;28.60;;
3068;SDS011;1545;51.728;8.796;2022-12-07T07:47:01;60.40;;;28.00;;
3068;SDS011;1545;51.728;8.796;2022-12-07T07:49:27;51.93;;;27.43;;
3068;SDS011;1545;51.728;8.796;2022-12-07T07:51:52;67.13;;;29.00;;
3068;SDS011;1545;51.728;8.796;2022-12-07T07:54:18;58.50;;;26.73;;
3068;SDS011;1545;51.728;8.796;2022-12-07T07:56:43;54.13;;;26.00;;
3068;SDS011;1545;51.728;8.796;2022-12-07T07:59:09;56.67;;;25.87;;
3068;SDS011;1545;51.728;8.796;2022-12-07T08:01:34;53.67;;;25.70;;
3068;SDS011;1545;51.728;8.796;2022-12-07T08:04:00;57.03;;;26.47;;
3068;SDS011;1545;51.728;8.796;2022-12-07T08:06:26;51.53;;;24.60;;
3068;SDS011;1545;51.728;8.796;2022-12-07T08:08:51;48.73;;;25.57;;
3068;SDS011;1545;51.728;8.796;2022-12-07T08:11:17;61.30;;;25.43;;
3068;SDS011;1545;51.728;8.796;2022-12-07T08:13:45;51.83;;;24.97;;
3068;SDS011;1545;51.728;8.796;2022-12-07T08:16:12;54.10;;;26.07;;
3068;SDS011;1545;51.728;8.796;2022-12-07T08:18:39;49.63;;;24.17;;
3068;SDS011;1545;51.728;8.796;2022-12-07T08:21:06;53.90;;;25.87;;
3068;SDS011;1545;51.728;8.796;2022-12-07T08:23:34;50.97;;;24.80;;
3068;SDS011;1545;51.728;8.796;2022-12-07T08:26:00;51.73;;;25.20;;
3068;SDS011;1545;51.728;8.796;2022-12-07T08:28:27;50.97;;;26.30;;
3068;SDS011;1545;51.728;8.796;2022-12-07T08:30:58;57.63;;;26.07;;
3068;SDS011;1545;51.728;8.796;2022-12-07T08:33:25;58.73;;;25.67;;
3068;SDS011;1545;51.728;8.796;2022-12-07T08:35:51;50.70;;;25.33;;
3068;SDS011;1545;51.728;8.796;2022-12-07T08:38:16;48.07;;;26.23;;
3068;SDS011;1545;51.728;8.796;2022-12-07T08:40:42;55.90;;;26.67;;
3068;SDS011;1545;51.728;8.796;2022-12-07T08:43:07;57.77;;;25.47;;
3068;SDS011;1545;51.728;8.796;2022-12-07T08:45:33;52.50;;;25.30;;
3068;SDS011;1545;51.728;8.796;2022-12-07T08:48:07;71.83;;;26.10;;
3068;SDS011;1545;51.728;8.796;2022-12-07T08:50:35;56.67;;;25.50;;
3068;SDS011;1545;51.728;8.796;2022-12-07T08:53:02;52.17;;;26.03;;
3068;SDS011;1545;51.728;8.796;2022-12-07T08:55:29;54.97;;;25.33;;
3068;SDS011;1545;51.728;8.796;2022-12-07T08:57:59;50.57;;;24.63;;
3068;SDS011;1545;51.728;8.796;2022-12-07T09:00:27;49.53;;;22.60;;
3068;SDS011;1545;51.728;8.796;2022-12-07T09:02:53;50.67;;;23.83;;
3068;SDS011;1545;51.728;8.796;2022-12-07T09:05:19;63.83;;;26.77;;
3068;SDS011;1545;51.728;8.796;2022-12-07T09:07:46;55.53;;;24.17;;
3068;SDS011;1545;51.728;8.796;2022-12-07T09:10:16;41.63;;;21.90;;
3068;SDS011;1545;51.728;8.796;2022-12-07T09:12:42;45.43;;;22.30;;
3068;SDS011;1545;51.728;8.796;2022-12-07T09:15:08;52.10;;;22.97;;
3068;SDS011;1545;51.728;8.796;2022-12-07T09:17:34;44.27;;;22.03;;
3068;SDS011;1545;51.728;8.796;2022-12-07T09:20:01;52.03;;;20.63;;
3068;SDS011;1545;51.728;8.796;2022-12-07T09:22:30;42.23;;;20.90;;
3068;SDS011;1545;51.728;8.796;2022-12-07T09:24:58;43.37;;;20.30;;
3068;SDS011;1545;51.728;8.796;2022-12-07T09:27:25;50.47;;;19.70;;
3068;SDS011;1545;51.728;8.796;2022-12-07T09:29:51;39.03;;;19.63;;
3068;SDS011;1545;51.728;8.796;2022-12-07T09:32:17;42.93;;;18.30;;
3068;SDS011;1545;51.728;8.796;2022-12-07T09:34:42;33.63;;;18.00;;
3068;SDS011;1545;51.728;8.796;2022-12-07T09:37:09;36.63;;;17.13;;
3068;SDS011;1545;51.728;8.796;2022-12-07T09:39:34;38.93;;;17.50;;
3068;SDS011;1545;51.728;8.796;2022-12-07T09:42:03;35.30;;;17.80;;
3068;SDS011;1545;51.728;8.796;2022-12-07T09:44:30;35.57;;;16.10;;
3068;SDS011;1545;51.728;8.796;2022-12-07T09:46:56;37.90;;;17.83;;
3068;SDS011;1545;51.728;8.796;2022-12-07T09:49:23;37.27;;;17.03;;
3068;SDS011;1545;51.728;8.796;2022-12-07T09:54:50;38.53;;;17.70;;
3068;SDS011;1545;51.728;8.796;2022-12-07T09:57:16;36.07;;;16.00;;
3068;SDS011;1545;51.728;8.796;2022-12-07T09:59:44;36.10;;;16.20;;
3068;SDS011;1545;51.728;8.796;2022-12-07T10:02:25;34.97;;;16.80;;
3068;SDS011;1545;51.728;8.796;2022-12-07T10:04:50;38.53;;;16.07;;
3068;SDS011;1545;51.728;8.796;2022-12-07T10:07:16;34.10;;;15.77;;
3068;SDS011;1545;51.728;8.796;2022-12-07T10:09:41;45.83;;;17.03;;
3068;SDS011;1545;51.728;8.796;2022-12-07T10:12:09;31.23;;;15.00;;
3068;SDS011;1545;51.728;8.796;2022-12-07T10:14:38;29.80;;;14.30;;
3068;SDS011;1545;51.728;8.796;2022-12-07T10:17:31;30.67;;;15.33;;
3068;SDS011;1545;51.728;8.796;2022-12-07T10:22:36;27.43;;;14.13;;
3068;SDS011;1545;51.728;8.796;2022-12-07T10:25:09;39.50;;;14.30;;
3068;SDS011;1545;51.728;8.796;2022-12-07T10:27:44;31.13;;;14.83;;
3068;SDS011;1545;51.728;8.796;2022-12-07T10:30:23;31.13;;;15.83;;
3068;SDS011;1545;51.728;8.796;2022-12-07T10:32:48;34.43;;;15.13;;
3068;SDS011;1545;51.728;8.796;2022-12-07T10:35:22;32.23;;;14.27;;
3068;SDS011;1545;51.728;8.796;2022-12-07T10:37:51;30.50;;;15.00;;
3068;SDS011;1545;51.728;8.796;2022-12-07T10:40:32;29.13;;;14.97;;
3068;SDS011;1545;51.728;8.796;2022-12-07T10:48:38;32.73;;;15.00;;
3068;SDS011;1545;51.728;8.796;2022-12-07T10:51:12;39.80;;;15.40;;
3068;SDS011;1545;51.728;8.796;2022-12-07T10:56:19;31.27;;;16.77;;
3068;SDS011;1545;51.728;8.796;2022-12-07T11:01:35;31.90;;;15.73;;
3068;SDS011;1545;51.728;8.796;2022-12-07T11:04:31;27.67;;;14.87;;
3068;SDS011;1545;51.728;8.796;2022-12-07T11:07:15;26.20;;;14.97;;
3068;SDS011;1545;51.728;8.796;2022-12-07T11:15:33;32.13;;;14.47;;
3068;SDS011;1545;51.728;8.796;2022-12-07T11:18:09;29.37;;;15.13;;
3068;SDS011;1545;51.728;8.796;2022-12-07T11:23:56;29.07;;;13.63;;
3068;SDS011;1545;51.728;8.796;2022-12-07T11:29:04;28.53;;;13.63;;
3068;SDS011;1545;51.728;8.796;2022-12-07T11:37:24;29.50;;;13.03;;
3068;SDS011;1545;51.728;8.796;2022-12-07T11:39:55;30.00;;;13.97;;
3068;SDS011;1545;51.728;8.796;2022-12-07T11:42:46;33.13;;;13.70;;
3068;SDS011;1545;51.728;8.796;2022-12-07T11:45:37;34.03;;;13.80;;
3068;SDS011;1545;51.728;8.796;2022-12-07T11:48:09;30.63;;;12.97;;
3068;SDS011;1545;51.728;8.796;2022-12-07T11:50:47;28.63;;;12.93;;
3068;SDS011;1545;51.728;8.796;2022-12-07T11:53:24;25.80;;;13.93;;
3068;SDS011;1545;51.728;8.796;2022-12-07T11:58:38;33.90;;;13.20;;
3068;SDS011;1545;51.728;8.796;2022-12-07T12:06:35;26.17;;;12.87;;
3068;SDS011;1545;51.728;8.796;2022-12-07T12:09:14;30.70;;;12.97;;
3068;SDS011;1545;51.728;8.796;2022-12-07T12:14:43;36.37;;;12.33;;
3068;SDS011;1545;51.728;8.796;2022-12-07T12:17:32;25.57;;;11.30;;
3068;SDS011;1545;51.728;8.796;2022-12-07T12:20:31;26.20;;;11.77;;
3068;SDS011;1545;51.728;8.796;2022-12-07T12:23:12;22.60;;;12.40;;
3068;SDS011;1545;51.728;8.796;2022-12-07T12:25:46;24.77;;;11.03;;
3068;SDS011;1545;51.728;8.796;2022-12-07T12:31:04;22.67;;;9.70;;
3068;SDS011;1545;51.728;8.796;2022-12-07T12:33:30;30.40;;;10.50;;
3068;SDS011;1545;51.728;8.796;2022-12-07T12:47:00;24.63;;;9.90;;
3068;SDS011;1545;51.728;8.796;2022-12-07T12:49:37;23.03;;;9.67;;
3068;SDS011;1545;51.728;8.796;2022-12-07T12:54:38;21.43;;;8.70;;
3068;SDS011;1545;51.728;8.796;2022-12-07T12:57:05;23.73;;;9.13;;
3068;SDS011;1545;51.728;8.796;2022-12-07T13:02:23;30.40;;;10.70;;
3068;SDS011;1545;51.728;8.796;2022-12-07T13:16:35;19.70;;;9.50;;
3068;SDS011;1545;51.728;8.796;2022-12-07T13:20:57;21.03;;;9.63;;
3068;SDS011;1545;51.728;8.796;2022-12-07T13:23:31;20.37;;;10.20;;
3068;SDS011;1545;51.728;8.796;2022-12-07T13:31:52;21.80;;;8.90;;
3068;SDS011;1545;51.728;8.796;2022-12-07T13:34:40;21.57;;;8.27;;
3068;SDS011;1545;51.728;8.796;2022-12-07T13:40:20;25.50;;;8.73;;
3068;SDS011;1545;51.728;8.796;2022-12-07T13:42:46;20.07;;;8.77;;
3068;SDS011;1545;51.728;8.796;2022-12-07T13:45:26;17.80;;;7.60;;
3068;SDS011;1545;51.728;8.796;2022-12-07T13:48:23;18.43;;;8.27;;
3068;SDS011;1545;51.728;8.796;2022-12-07T13:50:56;19.97;;;7.50;;
3068;SDS011;1545;51.728;8.796;2022-12-07T13:53:23;18.03;;;7.83;;
3068;SDS011;1545;51.728;8.796;2022-12-07T13:55:49;20.60;;;8.23;;
3068;SDS011;1545;51.728;8.796;2022-12-07T13:58:15;21.60;;;8.20;;
3068;SDS011;1545;51.728;8.796;2022-12-07T14:00:41;17.87;;;8.57;;
3068;SDS011;1545;51.728;8.796;2022-12-07T14:05:36;18.77;;;8.33;;
3068;SDS011;1545;51.728;8.796;2022-12-07T14:16:01;23.53;;;8.97;;
3068;SDS011;1545;51.728;8.796;2022-12-07T14:18:39;22.60;;;9.00;;
3068;SDS011;1545;51.728;8.796;2022-12-07T14:21:06;27.70;;;9.67;;
3068;SDS011;1545;51.728;8.796;2022-12-07T14:23:35;20.10;;;8.60;;
3068;SDS011;1545;51.728;8.796;2022-12-07T14:26:13;23.97;;;8.87;;
3068;SDS011;1545;51.728;8.796;2022-12-07T14:28:40;25.50;;;9.53;;
3068;SDS011;1545;51.728;8.796;2022-12-07T14:31:12;19.13;;;8.40;;
3068;SDS011;1545;51.728;8.796;2022-12-07T14:33:39;25.27;;;8.53;;
3068;SDS011;1545;51.728;8.796;2022-12-07T14:36:05;19.07;;;8.60;;
3068;SDS011;1545;51.728;8.796;2022-12-07T14:38:33;24.97;;;8.83;;
3068;SDS011;1545;51.728;8.796;2022-12-07T14:40:59;25.70;;;8.53;;
3068;SDS011;1545;51.728;8.796;2022-12-07T14:43:44;15.77;;;7.37;;
3068;SDS011;1545;51.728;8.796;2022-12-07T14:46:10;19.23;;;7.80;;
3068;SDS011;1545;51.728;8.796;2022-12-07T14:48:36;22.70;;;7.90;;
3068;SDS011;1545;51.728;8.796;2022-12-07T14:51:01;22.47;;;7.70;;
3068;SDS011;1545;51.728;8.796;2022-12-07T14:53:33;18.67;;;6.80;;
3068;SDS011;1545;51.728;8.796;2022-12-07T14:56:02;18.93;;;7.60;;
3068;SDS011;1545;51.728;8.796;2022-12-07T14:58:30;25.73;;;8.30;;
3068;SDS011;1545;51.728;8.796;2022-12-07T15:00:55;20.27;;;7.90;;
3068;SDS011;1545;51.728;8.796;2022-12-07T15:03:21;26.80;;;7.37;;
3068;SDS011;1545;51.728;8.796;2022-12-07T15:05:46;23.13;;;7.30;;
3068;SDS011;1545;51.728;8.796;2022-12-07T15:08:12;27.20;;;11.13;;
3068;SDS011;1545;51.728;8.796;2022-12-07T15:10:38;28.67;;;7.57;;
3068;SDS011;1545;51.728;8.796;2022-12-07T15:13:05;21.80;;;7.30;;
3068;SDS011;1545;51.728;8.796;2022-12-07T15:15:53;21.67;;;7.27;;
3068;SDS011;1545;51.728;8.796;2022-12-07T15:18:20;21.83;;;6.90;;
3068;SDS011;1545;51.728;8.796;2022-12-07T15:20:46;22.77;;;7.43;;
3068;SDS011;1545;51.728;8.796;2022-12-07T15:23:12;19.83;;;7.07;;
3068;SDS011;1545;51.728;8.796;2022-12-07T15:25:41;33.37;;;7.33;;
3068;SDS011;1545;51.728;8.796;2022-12-07T15:28:08;23.97;;;8.27;;
3068;SDS011;1545;51.728;8.796;2022-12-07T15:30:33;25.77;;;8.53;;
3068;SDS011;1545;51.728;8.796;2022-12-07T15:32:59;25.33;;;8.87;;
3068;SDS011;1545;51.728;8.796;2022-12-07T15:35:24;22.20;;;8.87;;
3068;SDS011;1545;51.728;8.796;2022-12-07T15:37:50;25.67;;;9.00;;
3068;SDS011;1545;51.728;8.796;2022-12-07T15:40:15;35.00;;;9.43;;
3068;SDS011;1545;51.728;8.796;2022-12-07T15:42:41;18.90;;;9.40;;
3068;SDS011;1545;51.728;8.796;2022-12-07T15:45:07;20.67;;;9.83;;
3068;SDS011;1545;51.728;8.796;2022-12-07T15:47:37;32.40;;;11.50;;
3068;SDS011;1545;51.728;8.796;2022-12-07T15:50:06;22.67;;;10.90;;
3068;SDS011;1545;51.728;8.796;2022-12-07T15:52:37;32.23;;;13.00;;
3068;SDS011;1545;51.728;8.796;2022-12-07T15:55:03;28.47;;;12.50;;
3068;SDS011;1545;51.728;8.796;2022-12-07T15:57:29;23.87;;;11.67;;
3068;SDS011;1545;51.728;8.796;2022-12-07T15:59:59;26.77;;;12.67;;
3068;SDS011;1545;51.728;8.796;2022-12-07T16:02:25;31.57;;;12.30;;
3068;SDS011;1545;51.728;8.796;2022-12-07T16:04:50;35.50;;;13.03;;
3068;SDS011;1545;51.728;8.796;2022-12-07T16:07:16;27.47;;;13.10;;
3068;SDS011;1545;51.728;8.796;2022-12-07T16:09:43;33.83;;;13.13;;
3068;SDS011;1545;51.728;8.796;2022-12-07T16:12:10;26.73;;;12.50;;
3068;SDS011;1545;51.728;8.796;2022-12-07T16:14:36;26.77;;;13.20;;
3068;SDS011;1545;51.728;8.796;2022-12-07T16:17:02;29.40;;;12.80;;
3068;SDS011;1545;51.728;8.796;2022-12-07T16:19:29;31.77;;;14.13;;
3068;SDS011;1545;51.728;8.796;2022-12-07T16:21:55;28.57;;;13.37;;
3068;SDS011;1545;51.728;8.796;2022-12-07T16:24:21;29.77;;;13.30;;
3068;SDS011;1545;51.728;8.796;2022-12-07T16:26:47;26.77;;;12.90;;
3068;SDS011;1545;51.728;8.796;2022-12-07T16:29:13;28.60;;;13.80;;
3068;SDS011;1545;51.728;8.796;2022-12-07T16:31:39;38.30;;;14.63;;
3068;SDS011;1545;51.728;8.796;2022-12-07T16:34:05;27.73;;;14.17;;
3068;SDS011;1545;51.728;8.796;2022-12-07T16:36:31;39.37;;;15.60;;
3068;SDS011;1545;51.728;8.796;2022-12-07T16:39:00;27.47;;;14.90;;
3068;SDS011;1545;51.728;8.796;2022-12-07T16:41:26;31.00;;;14.97;;
3068;SDS011;1545;51.728;8.796;2022-12-07T16:43:52;29.53;;;14.30;;
3068;SDS011;1545;51.728;8.796;2022-12-07T16:46:18;34.73;;;15.33;;
3068;SDS011;1545;51.728;8.796;2022-12-07T16:48:43;26.63;;;14.73;;
3068;SDS011;1545;51.728;8.796;2022-12-07T16:51:10;36.13;;;15.27;;
3068;SDS011;1545;51.728;8.796;2022-12-07T16:53:37;38.60;;;15.83;;
3068;SDS011;1545;51.728;8.796;2022-12-07T16:56:09;30.10;;;15.30;;
3068;SDS011;1545;51.728;8.796;2022-12-07T16:58:39;30.53;;;16.47;;
3068;SDS011;1545;51.728;8.796;2022-12-07T17:01:08;32.33;;;16.43;;
3068;SDS011;1545;51.728;8.796;2022-12-07T17:03:38;27.57;;;15.00;;
3068;SDS011;1545;51.728;8.796;2022-12-07T17:06:03;32.00;;;16.20;;
3068;SDS011;1545;51.728;8.796;2022-12-07T17:08:40;33.30;;;15.60;;
3068;SDS011;1545;51.728;8.796;2022-12-07T17:11:13;38.70;;;16.17;;
3068;SDS011;1545;51.728;8.796;2022-12-07T17:13:40;28.60;;;14.30;;
3068;SDS011;1545;51.728;8.796;2022-12-07T17:16:25;36.37;;;14.63;;
3068;SDS011;1545;51.728;8.796;2022-12-07T17:18:51;26.17;;;13.87;;